MSC Ludovica — HPAF — position and weather

sailwx.info

Track history (hours):
 
Tides and Currents Weather Stations Pressure Air Temp Water Temp Dewpoint Dewpoint Depression Visibility Wind Speed Wind Dir Waves Ship Positions

MSC Ludovica

Last reported at 2017-Aug-07 08:30 UTC. Time now 2017-Aug-23 00:24 UTC.
Position S 24°23' W 045°57'.
Warning: this ship's position is 15 days out of date.

Length 300 m; draft 13.8 m.

Type: Ship (hazmat cat A). MMSI: 351248000.

Date/timePositionNaut miles runAvg speedWind from/ knotsBaromVisibWave heightAir tempDewpointWater temp
2017-Aug-07 08:30S 24°23' W 045°57'510.1
2017-Aug-07 08:00S 24°24' W 046°03'510.0
2017-Aug-07 07:30S 24°25' W 046°08'5 9.5
2017-Aug-07 07:00S 24°25' W 046°13'510.2
2017-Aug-07 06:30S 24°22' W 046°18'510.2
2017-Aug-07 06:01S 24°19' W 046°22'510.7
2017-Aug-07 05:30S 24°14' W 046°23'510.6
2017-Aug-07 05:01S 24°08' W 046°24'611.4
2017-Aug-07 04:30S 24°03' W 046°21'4 8.3
2017-Aug-07 04:00S 23°60' W 046°19'3 4.8
2017-Aug-07 03:28S 23°57' W 046°19'1 0.0
2017-Aug-06 05:48S 23°56' W 046°19'2 7.3
2017-Aug-06 05:30S 23°58' W 046°18'3 6.6
2017-Aug-06 05:00S 24°00' W 046°20'4 7.0
2017-Aug-06 04:30S 24°04' W 046°22'2 4.5
2017-Aug-06 04:00S 24°06' W 046°23'2 3.8
2017-Aug-06 03:30S 24°08' W 046°23'1 2.6
2017-Aug-06 03:00S 24°09' W 046°24'611.2
2017-Aug-06 02:30S 24°14' W 046°26'815.3
2017-Aug-06 02:00S 24°21' W 046°29'815.1
2017-Aug-06 01:31S 24°28' W 046°32'815.4
2017-Aug-06 01:00S 24°35' W 046°35'  
Track history (hours):
 
Tides and Currents Weather Stations Pressure Air Temp Water Temp Dewpoint Dewpoint Depression Visibility Wind Speed Wind Dir Waves Ship Positions

MSC Ludovica

Last reported at 2017-Aug-07 08:30 UTC. Time now 2017-Aug-23 00:24 UTC.
Position S 24°23' W 045°57'.
Warning: this ship's position is 15 days out of date.

Length 300 m; draft 13.8 m.

Type: Ship (hazmat cat A). MMSI: 351248000.

Date/timePositionNaut miles runAvg speedWind from/ knotsBaromVisibWave heightAir tempDewpointWater temp
2017-Aug-07 08:30S 24°23' W 045°57'510.1
2017-Aug-07 08:00S 24°24' W 046°03'510.0
2017-Aug-07 07:30S 24°25' W 046°08'5 9.5
2017-Aug-07 07:00S 24°25' W 046°13'510.2
2017-Aug-07 06:30S 24°22' W 046°18'510.2
2017-Aug-07 06:01S 24°19' W 046°22'510.7
2017-Aug-07 05:30S 24°14' W 046°23'510.6
2017-Aug-07 05:01S 24°08' W 046°24'611.4
2017-Aug-07 04:30S 24°03' W 046°21'4 8.3
2017-Aug-07 04:00S 23°60' W 046°19'3 4.8
2017-Aug-07 03:28S 23°57' W 046°19'1 0.0
2017-Aug-06 05:48S 23°56' W 046°19'2 7.3
2017-Aug-06 05:30S 23°58' W 046°18'3 6.6
2017-Aug-06 05:00S 24°00' W 046°20'4 7.0
2017-Aug-06 04:30S 24°04' W 046°22'2 4.5
2017-Aug-06 04:00S 24°06' W 046°23'2 3.8
2017-Aug-06 03:30S 24°08' W 046°23'1 2.6
2017-Aug-06 03:00S 24°09' W 046°24'611.2
2017-Aug-06 02:30S 24°14' W 046°26'815.3
2017-Aug-06 02:00S 24°21' W 046°29'815.1
2017-Aug-06 01:31S 24°28' W 046°32'815.4
2017-Aug-06 01:00S 24°35' W 046°35'  

Dump ship's entire track history